Terminal Aerodrome Forecast
Issued by NWS Cleveland, OH

Home | Current Version | Previous Version | Text Only | Print | Product List | Glossary On
Versions: 1 2 3 4 5 6 7 8 9 10 11 12 13 14 15 16 17
709
FTUS41 KCLE 051304 AAA
TAFTOL
TAF AMD
KTOL 051304Z 0513/0612 25010KT P6SM SCT009 OVC020
      TEMPO 0515/0517 BKN009
     FM051800 23008KT P6SM SCT015 OVC025
     FM060100 VRB04KT P6SM FEW025 SCT100 OVC200=

USA.gov is the U.S. government's official web portal to all federal, state and local government web resources and services.